Time;durP1;ratioP1;P1;durP2;ratioP2;P2;SDS_P1;SDS_P2;PMS_P1;PMS_P2;Temp;Humidity;BMP_temperature;BMP_pressure;BME280_temperature;BME280_humidity;BME280_pressure;Samples;Min_cycle;Max_cycle;Signal;HPM_P1;HPM_P2
2022/03/24 00:01:29;;;;;;;54.53;23.60;;;;;;;4.19;76.57;102955.38;5092746;28;20393;-83
2022/03/24 00:03:54;;;;;;;56.88;23.55;;;;;;;4.17;76.61;102965.56;5084704;28;20024;-83
2022/03/24 00:06:20;;;;;;;56.10;23.38;;;;;;;4.13;76.93;102966.28;5091827;28;20119;-84
2022/03/24 00:08:45;;;;;;;57.13;24.65;;;;;;;4.09;75.60;102961.88;5092363;28;20028;-84
2022/03/24 00:11:10;;;;;;;54.50;23.75;;;;;;;4.06;75.88;102958.31;5091791;28;20047;-84
2022/03/24 00:13:36;;;;;;;54.22;23.83;;;;;;;4.02;77.11;102953.91;5073940;28;20396;-84
2022/03/24 00:16:03;;;;;;;56.65;23.27;;;;;;;3.98;77.66;102963.16;5097891;28;20040;-84
2022/03/24 00:18:31;;;;;;;52.88;23.67;;;;;;;3.96;77.26;102962.22;5101661;28;20119;-84
2022/03/24 00:20:57;;;;;;;52.30;22.90;;;;;;;3.94;77.30;102959.63;5091611;28;20388;-84
2022/03/24 00:23:22;;;;;;;55.42;23.67;;;;;;;3.90;77.57;102957.72;5094752;28;20493;-84
2022/03/24 00:25:48;;;;;;;51.72;22.38;;;;;;;3.86;77.49;102958.44;5094545;28;20119;-84
2022/03/24 00:28:14;;;;;;;51.97;21.70;;;;;;;3.84;77.73;102954.06;5091858;28;20032;-84
2022/03/24 00:30:39;;;;;;;51.63;22.08;;;;;;;3.80;77.00;102954.78;5091795;28;20028;-84
2022/03/24 00:33:05;;;;;;;55.72;23.55;;;;;;;3.79;76.37;102947.91;5092070;28;20031;-84
2022/03/24 00:35:31;;;;;;;53.58;23.73;;;;;;;3.74;77.54;102951.97;5094675;28;20059;-84
2022/03/24 00:37:57;;;;;;;53.97;23.48;;;;;;;3.75;78.24;102953.75;5079195;28;20039;-84
2022/03/24 00:40:22;;;;;;;57.03;25.30;;;;;;;3.70;78.75;102948.41;5077568;28;20020;-84
2022/03/24 00:42:47;;;;;;;55.97;24.52;;;;;;;3.69;78.92;102949.22;5091973;28;20024;-84
2022/03/24 00:45:13;;;;;;;59.08;25.58;;;;;;;3.68;79.68;102951.75;5093603;28;20374;-84
2022/03/24 00:47:42;;;;;;;59.45;24.73;;;;;;;3.62;78.54;102949.81;5100800;28;20027;-84
2022/03/24 00:50:09;;;;;;;59.45;24.48;;;;;;;3.58;77.41;102947.94;5089020;28;20040;-84
2022/03/24 00:52:40;;;;;;;60.83;25.52;;;;;;;3.57;79.87;102946.19;5080218;28;20528;-84
2022/03/24 00:55:08;;;;;;;57.22;24.60;;;;;;;3.53;79.04;102946.91;5073163;28;20024;-84
2022/03/24 00:57:33;;;;;;;56.03;23.60;;;;;;;3.48;78.96;102944.13;5112237;28;20032;-84
2022/03/24 00:59:58;;;;;;;55.97;24.45;;;;;;;3.50;77.76;102946.78;5075127;28;20103;-84
2022/03/24 01:02:27;;;;;;;56.22;23.95;;;;;;;3.46;79.54;102932.97;5091720;28;20036;-84
2022/03/24 01:04:52;;;;;;;58.95;24.42;;;;;;;3.47;79.87;102938.97;5089844;28;20396;-84
2022/03/24 01:07:17;;;;;;;57.60;24.77;;;;;;;3.46;79.20;102944.91;5103390;28;20485;-84
2022/03/24 01:09:43;;;;;;;57.53;24.17;;;;;;;3.41;79.74;102933.63;5090466;28;20114;-84
2022/03/24 01:12:09;;;;;;;57.40;25.55;;;;;;;3.42;80.05;102940.47;5073097;28;20135;-84
2022/03/24 01:14:35;;;;;;;58.13;24.77;;;;;;;3.37;80.46;102932.59;5071529;28;20408;-84
2022/03/24 01:17:02;;;;;;;60.10;25.65;;;;;;;3.36;80.81;102935.97;5091466;28;20438;-84
2022/03/24 01:19:28;;;;;;;57.88;25.92;;;;;;;3.36;81.15;102933.41;5090353;28;20088;-84
2022/03/24 01:21:53;;;;;;;56.63;24.17;;;;;;;3.36;79.88;102935.09;5072001;28;20123;-84
2022/03/24 01:24:18;;;;;;;58.15;25.08;;;;;;;3.32;78.79;102931.56;5090281;28;20458;-84
2022/03/24 01:26:45;;;;;;;58.17;23.63;;;;;;;3.29;79.90;102931.44;5095213;28;20016;-84
2022/03/24 01:29:12;;;;;;;58.72;24.50;;;;;;;3.29;80.70;102931.44;5103863;28;20099;-84
2022/03/24 01:31:42;;;;;;;56.50;23.85;;;;;;;3.21;79.87;102925.13;5089496;28;20028;-84
2022/03/24 01:34:07;;;;;;;58.42;24.50;;;;;;;3.21;81.50;102924.28;5089887;28;20020;-84
2022/03/24 01:36:34;;;;;;;53.30;24.23;;;;;;;3.18;80.75;102928.44;5104672;28;20050;-84
2022/03/24 01:38:59;;;;;;;61.63;25.02;;;;;;;3.17;81.44;102919.00;5072170;28;20111;-84
2022/03/24 01:41:25;;;;;;;62.33;25.63;;;;;;;3.16;82.44;102922.38;5093097;28;20595;-84
2022/03/24 01:43:50;;;;;;;60.80;24.92;;;;;;;3.19;82.82;102924.19;5090440;28;20039;-84
2022/03/24 01:46:20;;;;;;;56.83;23.23;;;;;;;3.16;79.92;102917.25;5103857;28;20484;-84
2022/03/24 01:48:45;;;;;;;61.40;25.67;;;;;;;3.14;79.45;102915.44;5079970;28;20484;-84
2022/03/24 01:51:11;;;;;;;61.60;24.65;;;;;;;3.12;81.07;102911.97;5106314;28;20023;-84
2022/03/24 01:53:36;;;;;;;59.08;25.05;;;;;;;3.12;81.88;102915.41;5111229;28;20047;-84
2022/03/24 01:56:03;;;;;;;58.67;24.63;;;;;;;3.07;81.35;102913.47;5101778;28;20020;-84
2022/03/24 01:58:29;;;;;;;62.13;26.00;;;;;;;3.06;81.40;102912.59;5090670;28;20269;-84
2022/03/24 02:01:17;;;;;;;57.83;27.02;;;;;;;3.03;82.79;102899.66;5086713;28;20028;-84
2022/03/24 02:03:44;;;;;;;62.72;25.67;;;;;;;3.03;82.51;102897.09;5090581;28;20027;-84
2022/03/24 02:06:09;;;;;;;60.70;25.95;;;;;;;3.01;81.44;102901.25;5089086;28;20028;-84
2022/03/24 02:08:38;;;;;;;60.60;24.98;;;;;;;2.98;81.13;102900.28;5090035;28;20408;-84
2022/03/24 02:11:03;;;;;;;58.85;24.88;;;;;;;2.93;81.73;102900.09;5089146;28;20052;-84
2022/03/24 02:13:28;;;;;;;62.05;25.02;;;;;;;2.90;81.26;102893.97;5071292;28;20085;-84
2022/03/24 02:15:54;;;;;;;60.58;25.10;;;;;;;2.86;81.82;102889.56;5091648;28;20529;-84
2022/03/24 02:18:20;;;;;;;62.08;25.35;;;;;;;2.80;79.76;102885.03;5101753;28;20074;-83
2022/03/24 02:20:47;;;;;;;64.50;26.17;;;;;;;2.83;81.95;102907.34;5089134;28;20074;-84
2022/03/24 02:23:15;;;;;;;64.35;26.55;;;;;;;2.84;82.42;102898.84;5101484;28;20031;-84
2022/03/24 02:25:42;;;;;;;64.68;27.02;;;;;;;2.84;81.60;102894.59;5089508;28;20016;-83
2022/03/24 02:28:07;;;;;;;69.90;26.58;;;;;;;2.83;80.20;102894.53;5087975;28;20496;-84
2022/03/24 02:30:33;;;;;;;61.25;25.83;;;;;;;2.82;81.07;102893.66;5071521;28;20021;-84
2022/03/24 02:32:58;;;;;;;59.00;25.42;;;;;;;2.81;81.62;102896.16;5089465;28;20031;-84
2022/03/24 02:35:24;;;;;;;64.10;25.83;;;;;;;2.77;81.93;102890.91;5101950;28;20333;-84
2022/03/24 02:37:49;;;;;;;66.07;26.92;;;;;;;2.78;83.11;102897.78;5093281;28;20070;-84
2022/03/24 02:40:14;;;;;;;64.30;26.65;;;;;;;2.82;83.72;102888.53;5089554;28;20031;-84
2022/03/24 02:42:40;;;;;;;64.90;26.80;;;;;;;2.81;82.99;102894.47;5091191;28;20032;-84
2022/03/24 02:45:08;;;;;;;60.25;25.33;;;;;;;2.74;80.40;102897.59;5089183;28;20036;-84
2022/03/24 02:47:33;;;;;;;60.90;25.98;;;;;;;2.74;83.00;102900.16;5089952;28;20594;-84
2022/03/24 02:49:59;;;;;;;59.40;24.75;;;;;;;2.72;82.36;102896.66;5068277;28;20035;-84
2022/03/24 02:52:25;;;;;;;61.42;26.17;;;;;;;2.69;80.92;102886.28;5092536;28;20035;-84
2022/03/24 02:54:51;;;;;;;63.58;25.77;;;;;;;2.63;82.08;102886.91;5092387;28;20082;-84
2022/03/24 02:57:17;;;;;;;62.75;26.45;;;;;;;2.64;83.11;102895.47;5091378;28;20036;-84
2022/03/24 02:59:42;;;;;;;62.15;26.15;;;;;;;2.63;83.59;102891.16;5079653;28;20107;-84
2022/03/24 03:02:13;;;;;;;61.15;25.75;;;;;;;2.62;83.27;102903.06;5085880;28;20038;-84
2022/03/24 03:04:40;;;;;;;61.17;24.50;;;;;;;2.58;83.60;102898.66;5071863;28;20484;-84
2022/03/24 03:07:05;;;;;;;62.08;25.92;;;;;;;2.57;83.73;102886.66;5091119;28;20049;-84
2022/03/24 03:09:32;;;;;;;61.42;25.27;;;;;;;2.53;82.02;102901.81;5089795;28;20403;-84
2022/03/24 03:11:58;;;;;;;63.25;25.52;;;;;;;2.47;83.47;102892.19;5089835;28;20048;-84
2022/03/24 03:14:24;;;;;;;58.58;25.08;;;;;;;2.46;83.54;102893.00;5096617;28;20381;-84
2022/03/24 03:16:50;;;;;;;60.03;25.83;;;;;;;2.44;84.34;102902.31;5109693;28;20070;-83
2022/03/24 03:19:19;;;;;;;60.17;25.42;;;;;;;2.42;84.04;102892.81;5099415;28;20041;-83
2022/03/24 03:21:45;;;;;;;57.67;24.73;;;;;;;2.34;82.70;102888.25;5101604;28;20047;-83
2022/03/24 03:24:11;;;;;;;62.75;25.77;;;;;;;2.30;83.04;102890.63;5086810;28;20020;-83
2022/03/24 03:26:38;;;;;;;59.28;25.02;;;;;;;2.26;83.57;102889.59;5088591;28;20097;-83
2022/03/24 03:29:06;;;;;;;65.45;26.15;;;;;;;2.23;83.70;102896.28;5095064;28;20024;-83
2022/03/24 03:31:31;;;;;;;57.35;24.88;;;;;;;2.17;82.95;102889.22;5088369;28;20030;-83
2022/03/24 03:33:56;;;;;;;63.00;25.15;;;;;;;2.15;83.81;102895.94;5080979;28;20020;-83
2022/03/24 03:36:23;;;;;;;60.95;25.08;;;;;;;2.15;84.93;102895.94;5086900;28;20392;-83
2022/03/24 03:38:49;;;;;;;60.95;25.95;;;;;;;2.14;84.45;102894.19;5092978;28;20422;-83
2022/03/24 03:41:15;;;;;;;68.03;25.73;;;;;;;2.12;84.65;102898.34;5105897;28;20035;-83
2022/03/24 03:43:44;;;;;;;62.85;26.05;;;;;;;2.08;84.10;102899.03;5057900;28;20432;-83
2022/03/24 03:46:10;;;;;;;58.72;25.45;;;;;;;2.01;84.21;102899.56;5070403;28;20027;-84
2022/03/24 03:48:39;;;;;;;61.30;25.77;;;;;;;1.97;84.37;102902.81;5092033;28;20034;-84
2022/03/24 03:51:06;;;;;;;65.78;25.00;;;;;;;1.96;85.11;102901.06;5090856;28;20028;-84
2022/03/24 03:53:32;;;;;;;58.97;24.63;;;;;;;1.93;84.64;102896.66;5091800;28;20107;-84
2022/03/24 03:55:57;;;;;;;57.58;24.38;;;;;;;1.91;84.43;102902.53;5109434;28;20026;-84
2022/03/24 03:58:23;;;;;;;61.88;25.60;;;;;;;1.86;84.51;102899.75;5104743;28;20019;-84
2022/03/24 04:00:55;;;;;;;63.40;25.80;;;;;;;1.86;85.38;102904.00;5088928;28;20016;-84
2022/03/24 04:03:29;;;;;;;63.28;25.33;;;;;;;1.84;85.33;102897.97;5101031;28;20032;-84
2022/03/24 04:05:59;;;;;;;61.15;25.00;;;;;;;1.81;85.29;102902.94;5087313;28;20519;-84
2022/03/24 04:08:24;;;;;;;58.08;23.65;;;;;;;1.75;84.05;102903.53;5102845;28;20028;-84
2022/03/24 04:10:50;;;;;;;59.72;23.80;;;;;;;1.70;84.25;102904.13;5087687;28;20378;-84
2022/03/24 04:13:17;;;;;;;55.78;22.67;;;;;;;1.68;84.63;102904.06;5069239;28;20043;-84
2022/03/24 04:15:43;;;;;;;61.28;24.60;;;;;;;1.64;85.29;102906.41;5088615;28;20042;-84
2022/03/24 04:18:09;;;;;;;61.97;25.65;;;;;;;1.63;85.35;102908.09;5088781;28;20387;-84
2022/03/24 04:20:35;;;;;;;56.78;23.45;;;;;;;1.61;85.24;102912.25;5069415;28;20020;-84
2022/03/24 04:23:02;;;;;;;62.72;24.63;;;;;;;1.54;85.07;102911.09;5103285;28;20380;-84
2022/03/24 04:25:28;;;;;;;62.28;25.08;;;;;;;1.52;84.90;102915.25;5089448;28;20028;-84
2022/03/24 04:27:53;;;;;;;60.55;24.05;;;;;;;1.49;85.34;102912.56;5070172;28;20093;-84
2022/03/24 04:30:19;;;;;;;63.20;24.45;;;;;;;1.46;85.56;102912.41;5087827;28;20481;-84
2022/03/24 04:32:45;;;;;;;60.45;24.67;;;;;;;1.43;85.25;102909.69;5101884;28;20027;-84
2022/03/24 04:35:11;;;;;;;59.85;23.75;;;;;;;1.40;85.67;102912.13;5092443;28;20447;-84
2022/03/24 04:37:38;;;;;;;57.38;24.40;;;;;;;1.38;85.61;102907.75;5104674;28;20031;-84
2022/03/24 04:40:08;;;;;;;60.85;24.33;;;;;;;1.35;86.27;102898.28;5098368;28;20107;-84
2022/03/24 04:42:33;;;;;;;56.13;23.85;;;;;;;1.36;86.02;102905.13;5091676;28;20023;-84
2022/03/24 04:44:59;;;;;;;62.83;25.55;;;;;;;1.36;86.24;102905.13;5096756;28;20377;-83
2022/03/24 04:47:26;;;;;;;59.97;24.60;;;;;;;1.34;86.00;102909.28;5112563;28;20492;-84
2022/03/24 04:49:51;;;;;;;57.97;24.13;;;;;;;1.29;85.84;102899.66;5074973;28;20024;-84
2022/03/24 04:52:19;;;;;;;59.80;23.92;;;;;;;1.29;86.38;102907.31;5091158;28;20081;-84
2022/03/24 04:54:44;;;;;;;60.90;24.63;;;;;;;1.26;84.98;102914.84;5091160;28;20027;-84
2022/03/24 04:57:10;;;;;;;57.85;23.90;;;;;;;1.23;86.15;102905.34;5091093;28;20035;-84
2022/03/24 04:59:35;;;;;;;60.00;24.75;;;;;;;1.22;86.18;102913.81;5091613;28;20032;-84
2022/03/24 05:02:00;;;;;;;63.50;23.75;;;;;;;1.22;86.42;102908.72;5101341;28;20540;-84
2022/03/24 05:04:26;;;;;;;68.68;24.45;;;;;;;1.19;86.09;102917.09;5099215;28;20028;-84
2022/03/24 05:06:51;;;;;;;63.67;23.83;;;;;;;1.16;86.52;102913.53;5081849;28;20505;-84
2022/03/24 05:09:17;;;;;;;72.30;25.25;;;;;;;1.14;86.26;102917.69;5107547;28;20032;-84
2022/03/24 05:11:43;;;;;;;66.70;25.40;;;;;;;1.13;87.45;102913.38;5091501;28;20036;-84
2022/03/24 05:14:09;;;;;;;73.10;25.33;;;;;;;1.15;87.74;102917.78;5090185;28;20034;-84
2022/03/24 05:16:34;;;;;;;75.70;24.25;;;;;;;1.12;85.90;102916.72;5090656;28;20106;-84
2022/03/24 05:19:00;;;;;;;88.93;25.27;;;;;;;1.09;86.61;102914.88;5091365;28;20103;-84
2022/03/24 05:21:25;;;;;;;81.20;24.75;;;;;;;1.08;86.93;102912.28;5091576;28;20455;-84
2022/03/24 05:23:50;;;;;;;92.22;25.60;;;;;;;1.10;87.82;102914.09;5090980;28;20027;-84
2022/03/24 05:26:20;;;;;;;94.00;24.85;;;;;;;1.09;86.87;102917.44;5090250;28;20124;-84
2022/03/24 05:28:46;;;;;;;88.22;24.33;;;;;;;1.11;87.95;102923.50;5090754;28;20039;-84
2022/03/24 05:31:11;;;;;;;75.68;24.23;;;;;;;1.12;87.54;102919.28;5090171;28;20028;-84
2022/03/24 05:33:37;;;;;;;76.55;23.65;;;;;;;1.10;87.32;102921.75;5091104;28;20112;-84
2022/03/24 05:36:02;;;;;;;75.68;24.42;;;;;;;1.10;87.10;102924.31;5089434;28;20028;-84
2022/03/24 05:38:28;;;;;;;81.80;24.10;;;;;;;1.09;87.39;102927.66;5082922;28;20102;-84
2022/03/24 05:40:53;;;;;;;67.00;23.50;;;;;;;1.09;87.36;102924.25;5099354;28;20073;-84
2022/03/24 05:43:19;;;;;;;71.75;22.73;;;;;;;1.10;87.70;102920.88;5103251;28;20499;-84
2022/03/24 05:45:44;;;;;;;77.65;24.67;;;;;;;1.12;87.78;102925.28;5094284;28;20393;-84
2022/03/24 05:48:09;;;;;;;71.40;22.95;;;;;;;1.15;87.71;102920.31;5090520;28;20099;-84
2022/03/24 05:50:35;;;;;;;67.95;24.40;;;;;;;1.18;87.79;102924.69;5071593;28;20038;-84
2022/03/24 05:53:00;;;;;;;77.60;24.25;;;;;;;1.21;87.68;102921.41;5090340;28;20032;-84
2022/03/24 05:55:26;;;;;;;79.50;24.98;;;;;;;1.25;87.97;102920.75;5089343;28;20111;-84
2022/03/24 05:57:51;;;;;;;69.43;23.85;;;;;;;1.31;87.96;102926.13;5072282;28;20031;-84
2022/03/24 06:00:16;;;;;;;67.72;23.65;;;;;;;1.35;88.12;102922.94;5089868;28;20097;-84
2022/03/24 06:02:44;;;;;;;71.90;24.30;;;;;;;1.40;87.89;102926.56;5055985;28;20028;-84
2022/03/24 06:05:12;;;;;;;66.18;23.65;;;;;;;1.48;88.27;102925.25;5089214;28;20031;-84
2022/03/24 06:07:38;;;;;;;72.80;24.25;;;;;;;1.59;88.40;102930.06;5109957;28;20020;-84
2022/03/24 06:10:04;;;;;;;65.22;23.48;;;;;;;1.91;88.62;102928.13;5089410;28;20251;-84
2022/03/24 06:12:31;;;;;;;66.00;24.50;;;;;;;2.40;87.73;102920.88;5071522;28;20555;-84
2022/03/24 06:14:57;;;;;;;68.82;25.70;;;;;;;2.89;86.25;102926.38;5086748;28;20039;-84
2022/03/24 06:17:23;;;;;;;62.50;24.67;;;;;;;3.42;85.00;102925.09;5089645;28;20030;-84
2022/03/24 06:19:53;;;;;;;66.50;23.88;;;;;;;4.01;83.44;102927.34;5090005;28;20115;-84
2022/03/24 06:22:18;;;;;;;68.60;24.48;;;;;;;4.59;81.21;102929.41;5071560;28;20385;-84
2022/03/24 06:24:44;;;;;;;67.10;23.75;;;;;;;5.01;79.10;102922.25;5088918;28;20642;-84
2022/03/24 06:27:09;;;;;;;68.25;24.33;;;;;;;5.35;79.10;102926.78;5090091;28;20031;-84
2022/03/24 06:29:35;;;;;;;62.15;24.13;;;;;;;5.84;77.40;102924.84;5098763;28;20037;-84
2022/03/24 06:32:01;;;;;;;58.60;24.40;;;;;;;5.97;76.14;102926.09;5078117;28;20073;-84
2022/03/24 06:34:26;;;;;;;58.38;24.55;;;;;;;5.98;75.27;102920.13;5071496;28;20400;-84
2022/03/24 06:36:54;;;;;;;71.60;25.77;;;;;;;5.87;75.84;102929.19;5098561;28;20027;-84
2022/03/24 06:39:19;;;;;;;64.03;24.98;;;;;;;5.99;74.95;102933.88;5088223;28;20111;-84
2022/03/24 06:41:45;;;;;;;67.00;24.88;;;;;;;5.97;76.09;102930.38;5086731;28;20030;-84
2022/03/24 06:44:10;;;;;;;75.88;25.65;;;;;;;5.97;77.55;102926.09;5092613;28;20406;-84
2022/03/24 06:46:38;;;;;;;69.07;25.38;;;;;;;6.38;77.54;102922.09;5095748;28;20054;-84
2022/03/24 06:49:05;;;;;;;76.28;26.25;;;;;;;6.92;75.97;102929.50;5082681;28;20028;-84
2022/03/24 06:51:31;;;;;;;66.50;24.65;;;;;;;7.18;75.05;102930.13;5088233;28;20032;-84
2022/03/24 06:53:57;;;;;;;62.53;25.00;;;;;;;7.51;74.09;102925.75;5070087;28;20036;-84
2022/03/24 06:56:22;;;;;;;59.67;25.27;;;;;;;8.23;71.61;102926.44;5098169;28;20020;-84
2022/03/24 06:58:48;;;;;;;64.13;25.40;;;;;;;8.52;69.53;102919.25;5087319;28;20384;-84
2022/03/24 07:01:13;;;;;;;61.33;25.38;;;;;;;8.54;70.97;102927.91;5087945;28;20058;-84
2022/03/24 07:03:40;;;;;;;64.13;25.17;;;;;;;8.78;69.61;102924.88;5089238;28;20024;-84
2022/03/24 07:06:05;;;;;;;63.97;25.92;;;;;;;8.85;69.90;102925.84;5098433;28;20769;-84
2022/03/24 07:08:31;;;;;;;67.10;26.60;;;;;;;8.90;70.08;102927.66;5090350;28;20055;-84
2022/03/24 07:10:56;;;;;;;60.95;26.40;;;;;;;9.33;68.80;102929.22;5087505;28;20082;-84
2022/03/24 07:13:22;;;;;;;57.03;26.08;;;;;;;9.70;68.04;102930.59;5089337;28;20110;-84
2022/03/24 07:15:47;;;;;;;62.35;27.33;;;;;;;9.91;66.64;102930.00;5097985;28;20077;-84
2022/03/24 07:18:13;;;;;;;58.10;27.40;;;;;;;9.87;67.28;102936.00;5094844;28;20157;-84
2022/03/24 07:20:39;;;;;;;60.17;27.17;;;;;;;9.95;66.28;102938.69;5088952;28;20102;-85
2022/03/24 07:23:10;;;;;;;62.15;28.30;;;;;;;9.64;67.34;102940.00;5087754;28;20111;-85
2022/03/24 07:25:39;;;;;;;58.67;27.25;;;;;;;9.41;68.21;102934.50;5093564;28;20051;-84
2022/03/24 07:28:06;;;;;;;56.08;27.05;;;;;;;9.40;69.92;102930.19;5082636;28;20040;-85
2022/03/24 07:30:31;;;;;;;60.78;27.10;;;;;;;9.84;67.81;102934.25;5092650;28;20103;-84
2022/03/24 07:33:01;;;;;;;55.60;27.83;;;;;;;9.91;69.11;102935.19;5093531;28;20117;-84
2022/03/24 07:35:29;;;;;;;55.28;28.27;;;;;;;10.47;67.49;102929.81;5102674;28;20048;-84
2022/03/24 07:37:54;;;;;;;58.70;28.63;;;;;;;10.79;66.36;102924.94;5071077;28;20024;-84
2022/03/24 07:40:22;;;;;;;57.80;28.60;;;;;;;10.70;66.32;102933.50;5092602;28;20023;-84
2022/03/24 07:42:52;;;;;;;60.03;28.30;;;;;;;10.32;67.48;102937.41;5100276;28;20032;-85
2022/03/24 07:45:18;;;;;;;60.67;29.25;;;;;;;10.12;69.15;102935.44;5089907;28;20484;-84
2022/03/24 07:48:02;;;;;;;58.50;29.50;;;;;;;10.37;69.13;102943.56;5088094;28;21348;-84
2022/03/24 07:50:28;;;;;;;65.43;31.00;;;;;;;10.62;67.45;102937.75;5090901;28;20047;-84
2022/03/24 07:52:53;;;;;;;59.63;30.92;;;;;;;10.72;67.05;102938.69;5087427;28;20293;-84
2022/03/24 07:55:19;;;;;;;65.03;31.77;;;;;;;10.70;67.94;102938.72;5095295;28;20242;-83
2022/03/24 07:57:44;;;;;;;64.07;30.70;;;;;;;10.87;65.79;102938.84;5091745;28;20026;-84
2022/03/24 08:00:10;;;;;;;62.10;31.42;;;;;;;10.97;66.30;102940.66;5083309;28;20024;-83
2022/03/24 08:02:43;;;;;;;64.65;31.98;;;;;;;11.05;66.23;102947.63;5072041;28;20092;-85
2022/03/24 08:05:08;;;;;;;61.45;31.58;;;;;;;11.39;62.51;102947.91;5096376;28;20024;-85
2022/03/24 08:07:34;;;;;;;60.92;32.67;;;;;;;12.26;64.99;102934.50;5093717;28;20019;-85
2022/03/24 08:09:59;;;;;;;63.85;32.42;;;;;;;13.10;62.67;102944.16;5086582;28;20442;-85
2022/03/24 08:12:24;;;;;;;62.80;32.63;;;;;;;13.64;58.90;102938.88;5072680;28;20442;-85
2022/03/24 08:14:49;;;;;;;62.35;32.45;;;;;;;14.24;57.95;102942.97;5091485;28;20032;-85
2022/03/24 08:17:15;;;;;;;65.35;32.28;;;;;;;14.83;57.46;102940.88;5091287;28;20020;-86
2022/03/24 08:19:40;;;;;;;62.10;32.15;;;;;;;15.45;53.59;102939.44;5094578;28;20047;-86
2022/03/24 08:22:06;;;;;;;58.88;31.70;;;;;;;16.29;55.37;102944.56;5103867;28;20016;-86
2022/03/24 08:24:31;;;;;;;58.67;31.65;;;;;;;17.14;52.46;102943.25;5091870;28;20070;-85
2022/03/24 08:26:56;;;;;;;56.60;30.42;;;;;;;18.07;49.90;102951.09;5102879;28;20028;-86
2022/03/24 08:29:21;;;;;;;62.70;31.27;;;;;;;18.85;46.92;102946.69;5075236;28;20038;-84
2022/03/24 08:31:48;;;;;;;60.63;30.20;;;;;;;19.31;42.99;102949.03;5092615;28;20036;-84
2022/03/24 08:34:14;;;;;;;55.45;31.13;;;;;;;19.44;42.73;102945.16;5105893;28;20387;-84
2022/03/24 08:36:40;;;;;;;52.03;29.13;;;;;;;19.29;39.30;102956.97;5089538;28;20024;-84
2022/03/24 08:39:07;;;;;;;52.78;29.48;;;;;;;18.90;37.04;102953.56;5092694;28;20032;-83
2022/03/24 08:41:32;;;;;;;51.58;30.60;;;;;;;18.78;38.37;102947.75;5081944;28;20115;-84
2022/03/24 08:43:58;;;;;;;52.40;30.10;;;;;;;18.86;40.88;102951.06;5091742;28;20119;-84
2022/03/24 08:46:24;;;;;;;48.28;28.95;;;;;;;18.68;37.50;102952.38;5104119;28;20278;-85
2022/03/24 08:48:50;;;;;;;49.47;28.88;;;;;;;18.66;36.83;102953.28;5100416;28;20180;-84
2022/03/24 08:51:16;;;;;;;49.22;29.35;;;;;;;18.83;38.95;102954.59;5089228;28;20075;-83
2022/03/24 08:53:41;;;;;;;54.83;29.38;;;;;;;19.04;40.57;102955.00;5090829;28;20055;-83
2022/03/24 08:56:07;;;;;;;50.40;29.97;;;;;;;19.03;36.14;102958.53;5092589;28;20024;-84
2022/03/24 08:58:32;;;;;;;47.28;28.60;;;;;;;19.00;32.07;102959.47;5099491;28;20715;-83
2022/03/24 09:00:58;;;;;;;53.17;30.43;;;;;;;18.96;34.80;102956.97;5093653;28;20473;-83
2022/03/24 09:03:23;;;;;;;51.30;30.45;;;;;;;18.75;34.35;102959.22;5099762;28;20297;-84
2022/03/24 09:05:48;;;;;;;51.80;29.98;;;;;;;18.58;37.53;102956.09;5076385;28;20028;-83
2022/03/24 09:08:14;;;;;;;50.45;30.70;;;;;;;18.59;37.19;102951.72;5090727;28;20024;-83
2022/03/24 09:10:40;;;;;;;47.75;29.48;;;;;;;18.79;36.55;102955.59;5078188;28;20270;-83
2022/03/24 09:13:07;;;;;;;50.15;29.35;;;;;;;18.92;36.03;102957.03;5096024;28;20556;-83
2022/03/24 09:15:32;;;;;;;51.88;29.58;;;;;;;19.00;33.83;102955.97;5072484;28;20164;-83
2022/03/24 09:17:58;;;;;;;46.53;28.20;;;;;;;18.90;34.40;102961.44;5088815;28;20103;-83
2022/03/24 09:20:25;;;;;;;48.40;28.38;;;;;;;18.64;35.99;102953.31;5102343;28;20055;-83
2022/03/24 09:22:50;;;;;;;47.50;29.25;;;;;;;18.24;36.90;102955.97;5084070;28;20544;-83
2022/03/24 09:25:18;;;;;;;44.50;26.77;;;;;;;18.10;35.40;102955.41;5091504;28;20028;-83
2022/03/24 09:27:45;;;;;;;42.55;25.25;;;;;;;18.10;33.67;102963.28;5091155;28;20766;-82
2022/03/24 09:30:14;;;;;;;41.90;26.08;;;;;;;17.89;33.69;102961.09;5091146;28;20028;-83
2022/03/24 09:32:39;;;;;;;38.85;25.25;;;;;;;17.70;32.97;102963.22;5089429;28;20059;-83
2022/03/24 09:35:05;;;;;;;40.78;25.17;;;;;;;17.67;35.65;102964.13;5096800;28;20051;-83
2022/03/24 09:37:32;;;;;;;39.13;25.02;;;;;;;17.58;32.73;102966.06;5096972;28;20389;-83
2022/03/24 09:40:00;;;;;;;43.53;25.90;;;;;;;17.33;33.74;102965.66;5104736;28;20524;-83
2022/03/24 09:42:29;;;;;;;46.83;26.85;;;;;;;17.15;34.40;102958.94;5104807;28;20511;-83
2022/03/24 09:45:03;;;;;;;45.08;27.52;;;;;;;17.03;35.04;102960.91;5099621;28;20059;-83
2022/03/24 09:47:29;;;;;;;42.77;26.10;;;;;;;16.95;33.61;102963.66;5069188;28;20046;-83
2022/03/24 09:49:56;;;;;;;39.03;24.52;;;;;;;16.86;33.46;102967.28;5107655;28;20027;-83
2022/03/24 09:52:22;;;;;;;43.17;25.40;;;;;;;16.88;34.41;102962.03;5072934;28;20019;-84
2022/03/24 09:54:48;;;;;;;40.70;24.90;;;;;;;17.03;34.23;102964.41;5101126;28;20441;-84
2022/03/24 09:57:14;;;;;;;44.83;25.48;;;;;;;17.05;31.63;102960.00;5089354;28;20028;-84
2022/03/24 09:59:40;;;;;;;40.92;25.27;;;;;;;17.12;33.01;102961.66;5088683;28;20030;-83
2022/03/24 10:02:07;;;;;;;39.15;23.73;;;;;;;17.17;31.56;102959.81;5089676;28;20051;-83
2022/03/24 10:04:54;;;;;;;38.83;23.80;;;;;;;17.14;30.72;102965.06;5078157;28;20210;-83
2022/03/24 10:07:23;;;;;;;40.83;23.77;;;;;;;16.93;32.25;102962.81;5087508;28;20085;-86
2022/03/24 10:09:49;;;;;;;37.30;22.20;;;;;;;16.84;31.02;102968.22;5072067;28;20035;-86
2022/03/24 10:12:22;;;;;;;36.72;22.80;;;;;;;16.75;30.35;102958.75;5082639;28;20565;-85
2022/03/24 10:15:04;;;;;;;40.53;23.65;;;;;;;16.79;31.80;102962.16;5090377;28;20028;-85
2022/03/24 10:17:31;;;;;;;40.30;23.67;;;;;;;16.73;30.36;102962.25;5090467;28;21222;-85
2022/03/24 10:20:05;;;;;;;41.90;23.88;;;;;;;16.61;31.93;102951.97;5073535;28;20032;-85
2022/03/24 10:22:31;;;;;;;41.13;23.80;;;;;;;16.51;32.09;102949.44;5094620;28;20548;-85
2022/03/24 10:24:58;;;;;;;36.88;22.25;;;;;;;16.46;31.04;102951.28;5091866;28;20031;-85
2022/03/24 10:27:28;;;;;;;37.20;23.08;;;;;;;16.56;31.46;102945.03;5092801;28;20388;-85
2022/03/24 10:29:58;;;;;;;43.58;23.88;;;;;;;16.58;31.94;102942.41;5073959;28;20051;-85
2022/03/24 10:32:31;;;;;;;45.33;21.98;;;;;;;16.57;29.58;102941.53;5089885;28;20161;-84
2022/03/24 10:35:07;;;;;;;33.60;20.33;;;;;;;16.46;29.04;102945.19;5071623;28;20023;-85
2022/03/24 10:37:32;;;;;;;34.25;19.58;;;;;;;16.43;32.34;102940.88;5089438;28;20070;-85
2022/03/24 10:40:07;;;;;;;32.08;19.38;;;;;;;16.48;29.39;102943.41;5089285;28;20104;-83
2022/03/24 10:42:36;;;;;;;33.38;19.38;;;;;;;16.45;26.78;102939.06;5074154;28;20127;-83
2022/03/24 10:45:20;;;;;;;28.98;18.13;;;;;;;16.47;27.45;102941.69;5088161;28;20381;-83
2022/03/24 10:47:47;;;;;;;29.50;18.40;;;;;;;16.54;27.49;102938.09;5087384;28;20035;-85
2022/03/24 10:50:42;;;;;;;29.88;18.60;;;;;;;16.57;27.91;102941.53;5086199;28;20031;-84
2022/03/24 10:53:13;;;;;;;32.42;17.58;;;;;;;16.61;28.39;102945.00;5098308;28;20373;-85
2022/03/24 10:55:45;;;;;;;31.65;18.52;;;;;;;16.65;27.14;102941.44;5088810;28;20040;-85
2022/03/24 10:58:17;;;;;;;28.60;17.92;;;;;;;16.64;28.50;102939.72;5088988;28;20449;-85
2022/03/24 11:00:42;;;;;;;29.35;17.98;;;;;;;16.71;27.48;102937.88;5070834;28;20048;-85
2022/03/24 11:03:08;;;;;;;30.75;18.25;;;;;;;16.76;27.55;102938.66;5091106;28;20501;-85
2022/03/24 11:05:34;;;;;;;31.23;19.27;;;;;;;16.81;26.78;102939.44;5089243;28;20576;-85
2022/03/24 11:07:59;;;;;;;29.25;18.67;;;;;;;16.88;28.70;102935.84;5089026;28;20640;-85
2022/03/24 11:10:25;;;;;;;33.15;17.88;;;;;;;16.87;25.82;102934.09;5070495;28;20035;-85
2022/03/24 11:12:54;;;;;;;29.00;15.77;;;;;;;16.89;27.19;102937.56;5090517;28;20044;-85